sensor_id;sensor_type;location;lat;lon;timestamp;P1;durP1;ratioP1;P2;durP2;ratioP2
32214;SDS011;18708;53.124;23.190;2023-05-16T00:00:03;23.88;;;18.88;;
32214;SDS011;18708;53.124;23.190;2023-05-16T00:02:31;25.00;;;18.60;;
32214;SDS011;18708;53.124;23.190;2023-05-16T00:04:57;25.70;;;18.58;;
32214;SDS011;18708;53.124;23.190;2023-05-16T00:07:22;29.92;;;19.42;;
32214;SDS011;18708;53.124;23.190;2023-05-16T00:09:48;26.08;;;18.55;;
32214;SDS011;18708;53.124;23.190;2023-05-16T00:12:13;30.42;;;18.67;;
32214;SDS011;18708;53.124;23.190;2023-05-16T00:14:41;26.55;;;19.13;;
32214;SDS011;18708;53.124;23.190;2023-05-16T00:17:07;27.77;;;20.75;;
32214;SDS011;18708;53.124;23.190;2023-05-16T00:19:36;26.70;;;19.27;;
32214;SDS011;18708;53.124;23.190;2023-05-16T00:22:03;30.48;;;18.50;;
32214;SDS011;18708;53.124;23.190;2023-05-16T00:24:29;25.88;;;18.63;;
32214;SDS011;18708;53.124;23.190;2023-05-16T00:26:55;28.52;;;19.45;;
32214;SDS011;18708;53.124;23.190;2023-05-16T00:29:20;25.35;;;19.60;;
32214;SDS011;18708;53.124;23.190;2023-05-16T00:31:48;28.88;;;18.02;;
32214;SDS011;18708;53.124;23.190;2023-05-16T00:34:14;27.60;;;19.83;;
32214;SDS011;18708;53.124;23.190;2023-05-16T00:36:40;29.58;;;20.38;;
32214;SDS011;18708;53.124;23.190;2023-05-16T00:39:06;29.15;;;19.65;;
32214;SDS011;18708;53.124;23.190;2023-05-16T00:41:32;29.95;;;21.48;;
32214;SDS011;18708;53.124;23.190;2023-05-16T00:43:58;30.50;;;19.83;;
32214;SDS011;18708;53.124;23.190;2023-05-16T00:46:24;29.77;;;19.88;;
32214;SDS011;18708;53.124;23.190;2023-05-16T00:48:50;31.55;;;19.58;;
32214;SDS011;18708;53.124;23.190;2023-05-16T00:51:16;29.10;;;20.05;;
32214;SDS011;18708;53.124;23.190;2023-05-16T00:53:42;30.60;;;20.08;;
32214;SDS011;18708;53.124;23.190;2023-05-16T00:56:08;30.25;;;19.70;;
32214;SDS011;18708;53.124;23.190;2023-05-16T00:58:35;26.52;;;19.88;;
32214;SDS011;18708;53.124;23.190;2023-05-16T01:01:01;33.17;;;20.20;;
32214;SDS011;18708;53.124;23.190;2023-05-16T01:03:30;30.92;;;21.67;;
32214;SDS011;18708;53.124;23.190;2023-05-16T01:05:56;36.75;;;22.23;;
32214;SDS011;18708;53.124;23.190;2023-05-16T01:08:22;33.50;;;21.13;;
32214;SDS011;18708;53.124;23.190;2023-05-16T01:10:49;28.88;;;21.02;;
32214;SDS011;18708;53.124;23.190;2023-05-16T01:16:25;31.15;;;20.38;;
32214;SDS011;18708;53.124;23.190;2023-05-16T01:24:16;27.35;;;19.98;;
32214;SDS011;18708;53.124;23.190;2023-05-16T01:27:09;33.20;;;20.42;;
32214;SDS011;18708;53.124;23.190;2023-05-16T01:29:36;31.70;;;21.50;;
32214;SDS011;18708;53.124;23.190;2023-05-16T01:32:01;30.00;;;19.60;;
32214;SDS011;18708;53.124;23.190;2023-05-16T01:34:27;29.20;;;21.42;;
32214;SDS011;18708;53.124;23.190;2023-05-16T01:37:01;27.10;;;19.80;;
32214;SDS011;18708;53.124;23.190;2023-05-16T01:39:53;30.55;;;21.73;;
32214;SDS011;18708;53.124;23.190;2023-05-16T01:47:34;35.25;;;21.10;;
32214;SDS011;18708;53.124;23.190;2023-05-16T01:50:15;35.50;;;22.92;;
32214;SDS011;18708;53.124;23.190;2023-05-16T01:52:57;31.60;;;21.58;;
32214;SDS011;18708;53.124;23.190;2023-05-16T01:55:46;30.67;;;21.05;;
32214;SDS011;18708;53.124;23.190;2023-05-16T01:58:16;29.20;;;21.50;;
32214;SDS011;18708;53.124;23.190;2023-05-16T02:00:46;31.13;;;20.35;;
32214;SDS011;18708;53.124;23.190;2023-05-16T02:03:12;28.42;;;21.10;;
32214;SDS011;18708;53.124;23.190;2023-05-16T02:05:38;25.27;;;19.83;;
32214;SDS011;18708;53.124;23.190;2023-05-16T02:08:04;25.48;;;20.88;;
32214;SDS011;18708;53.124;23.190;2023-05-16T02:10:30;27.15;;;19.80;;
32214;SDS011;18708;53.124;23.190;2023-05-16T02:12:56;28.42;;;20.92;;
32214;SDS011;18708;53.124;23.190;2023-05-16T02:15:22;32.78;;;21.25;;
32214;SDS011;18708;53.124;23.190;2023-05-16T02:17:47;28.73;;;20.23;;
32214;SDS011;18708;53.124;23.190;2023-05-16T02:20:13;27.33;;;20.23;;
32214;SDS011;18708;53.124;23.190;2023-05-16T02:22:39;32.75;;;19.55;;
32214;SDS011;18708;53.124;23.190;2023-05-16T02:25:06;24.63;;;18.80;;
32214;SDS011;18708;53.124;23.190;2023-05-16T02:27:33;26.88;;;19.55;;
32214;SDS011;18708;53.124;23.190;2023-05-16T02:29:58;27.00;;;20.00;;
32214;SDS011;18708;53.124;23.190;2023-05-16T02:32:24;24.08;;;19.13;;
32214;SDS011;18708;53.124;23.190;2023-05-16T02:34:50;29.15;;;19.90;;
32214;SDS011;18708;53.124;23.190;2023-05-16T02:37:16;25.98;;;19.00;;
32214;SDS011;18708;53.124;23.190;2023-05-16T02:39:41;25.40;;;18.98;;
32214;SDS011;18708;53.124;23.190;2023-05-16T02:42:07;29.25;;;19.60;;
32214;SDS011;18708;53.124;23.190;2023-05-16T02:44:33;30.08;;;18.85;;
32214;SDS011;18708;53.124;23.190;2023-05-16T02:46:58;28.67;;;18.35;;
32214;SDS011;18708;53.124;23.190;2023-05-16T02:49:24;25.92;;;18.77;;
32214;SDS011;18708;53.124;23.190;2023-05-16T02:51:50;27.77;;;20.65;;
32214;SDS011;18708;53.124;23.190;2023-05-16T02:54:16;28.20;;;19.80;;
32214;SDS011;18708;53.124;23.190;2023-05-16T02:56:42;25.20;;;18.73;;
32214;SDS011;18708;53.124;23.190;2023-05-16T02:59:08;32.15;;;19.45;;
32214;SDS011;18708;53.124;23.190;2023-05-16T03:01:35;27.02;;;18.73;;
32214;SDS011;18708;53.124;23.190;2023-05-16T03:04:00;25.83;;;19.00;;
32214;SDS011;18708;53.124;23.190;2023-05-16T03:06:26;28.70;;;18.35;;
32214;SDS011;18708;53.124;23.190;2023-05-16T03:08:52;31.40;;;19.73;;
32214;SDS011;18708;53.124;23.190;2023-05-16T03:11:17;24.67;;;19.02;;
32214;SDS011;18708;53.124;23.190;2023-05-16T03:13:48;24.65;;;18.45;;
32214;SDS011;18708;53.124;23.190;2023-05-16T03:16:13;24.20;;;19.25;;
32214;SDS011;18708;53.124;23.190;2023-05-16T03:18:40;25.80;;;19.60;;
32214;SDS011;18708;53.124;23.190;2023-05-16T03:21:06;27.17;;;19.40;;
32214;SDS011;18708;53.124;23.190;2023-05-16T03:23:32;28.08;;;19.73;;
32214;SDS011;18708;53.124;23.190;2023-05-16T03:25:58;29.33;;;19.33;;
32214;SDS011;18708;53.124;23.190;2023-05-16T03:28:23;28.17;;;19.00;;
32214;SDS011;18708;53.124;23.190;2023-05-16T03:30:49;27.17;;;19.45;;
32214;SDS011;18708;53.124;23.190;2023-05-16T03:33:15;26.70;;;18.92;;
32214;SDS011;18708;53.124;23.190;2023-05-16T03:35:41;25.90;;;18.77;;
32214;SDS011;18708;53.124;23.190;2023-05-16T03:38:07;24.52;;;18.05;;
32214;SDS011;18708;53.124;23.190;2023-05-16T03:40:33;27.90;;;18.83;;
32214;SDS011;18708;53.124;23.190;2023-05-16T03:42:59;23.60;;;18.25;;
32214;SDS011;18708;53.124;23.190;2023-05-16T03:45:25;24.30;;;17.27;;
32214;SDS011;18708;53.124;23.190;2023-05-16T03:47:50;21.40;;;16.50;;
32214;SDS011;18708;53.124;23.190;2023-05-16T03:50:16;28.35;;;17.73;;
32214;SDS011;18708;53.124;23.190;2023-05-16T03:52:42;25.40;;;17.70;;
32214;SDS011;18708;53.124;23.190;2023-05-16T03:55:08;23.27;;;17.58;;
32214;SDS011;18708;53.124;23.190;2023-05-16T03:57:34;22.30;;;16.70;;
32214;SDS011;18708;53.124;23.190;2023-05-16T04:00:02;22.45;;;17.45;;
32214;SDS011;18708;53.124;23.190;2023-05-16T04:02:32;22.58;;;17.55;;
32214;SDS011;18708;53.124;23.190;2023-05-16T04:04:57;18.52;;;15.98;;
32214;SDS011;18708;53.124;23.190;2023-05-16T04:07:23;21.65;;;15.93;;
32214;SDS011;18708;53.124;23.190;2023-05-16T04:09:50;21.42;;;16.55;;
32214;SDS011;18708;53.124;23.190;2023-05-16T04:12:16;20.20;;;15.70;;
32214;SDS011;18708;53.124;23.190;2023-05-16T04:14:42;17.13;;;14.65;;
32214;SDS011;18708;53.124;23.190;2023-05-16T04:17:07;20.15;;;14.57;;
32214;SDS011;18708;53.124;23.190;2023-05-16T04:19:34;18.23;;;13.60;;
32214;SDS011;18708;53.124;23.190;2023-05-16T04:22:00;21.23;;;13.27;;
32214;SDS011;18708;53.124;23.190;2023-05-16T04:24:26;16.60;;;12.70;;
32214;SDS011;18708;53.124;23.190;2023-05-16T04:26:53;18.52;;;12.40;;
32214;SDS011;18708;53.124;23.190;2023-05-16T04:29:19;16.55;;;11.73;;
32214;SDS011;18708;53.124;23.190;2023-05-16T04:31:45;14.27;;;11.68;;
32214;SDS011;18708;53.124;23.190;2023-05-16T04:34:11;14.05;;;11.35;;
32214;SDS011;18708;53.124;23.190;2023-05-16T04:36:37;14.70;;;11.43;;
32214;SDS011;18708;53.124;23.190;2023-05-16T04:39:03;14.63;;;10.40;;
32214;SDS011;18708;53.124;23.190;2023-05-16T04:41:29;12.38;;;9.77;;
32214;SDS011;18708;53.124;23.190;2023-05-16T04:43:54;12.32;;;10.27;;
32214;SDS011;18708;53.124;23.190;2023-05-16T04:46:20;13.38;;;10.18;;
32214;SDS011;18708;53.124;23.190;2023-05-16T04:48:46;13.45;;;9.80;;
32214;SDS011;18708;53.124;23.190;2023-05-16T04:51:11;11.50;;;9.45;;
32214;SDS011;18708;53.124;23.190;2023-05-16T04:53:37;10.38;;;8.30;;
32214;SDS011;18708;53.124;23.190;2023-05-16T04:56:03;12.18;;;10.23;;
32214;SDS011;18708;53.124;23.190;2023-05-16T04:58:30;14.13;;;9.95;;
32214;SDS011;18708;53.124;23.190;2023-05-16T05:00:55;13.13;;;9.20;;
32214;SDS011;18708;53.124;23.190;2023-05-16T05:03:22;12.07;;;9.57;;
32214;SDS011;18708;53.124;23.190;2023-05-16T05:05:48;12.10;;;10.00;;
32214;SDS011;18708;53.124;23.190;2023-05-16T05:08:13;13.18;;;9.50;;
32214;SDS011;18708;53.124;23.190;2023-05-16T05:10:39;12.80;;;9.80;;
32214;SDS011;18708;53.124;23.190;2023-05-16T05:13:05;12.52;;;9.35;;
32214;SDS011;18708;53.124;23.190;2023-05-16T05:15:31;13.95;;;10.00;;
32214;SDS011;18708;53.124;23.190;2023-05-16T05:17:57;11.73;;;10.50;;
32214;SDS011;18708;53.124;23.190;2023-05-16T05:20:22;11.05;;;8.80;;
32214;SDS011;18708;53.124;23.190;2023-05-16T05:22:48;10.65;;;8.63;;
32214;SDS011;18708;53.124;23.190;2023-05-16T05:25:14;11.07;;;8.32;;
32214;SDS011;18708;53.124;23.190;2023-05-16T05:27:39;10.88;;;8.45;;
32214;SDS011;18708;53.124;23.190;2023-05-16T05:30:05;10.13;;;7.65;;
32214;SDS011;18708;53.124;23.190;2023-05-16T05:32:31;10.50;;;8.52;;
32214;SDS011;18708;53.124;23.190;2023-05-16T05:34:57;9.38;;;7.80;;
32214;SDS011;18708;53.124;23.190;2023-05-16T05:37:23;8.55;;;7.63;;
32214;SDS011;18708;53.124;23.190;2023-05-16T05:39:49;11.75;;;8.40;;
32214;SDS011;18708;53.124;23.190;2023-05-16T05:42:15;28.80;;;16.08;;
32214;SDS011;18708;53.124;23.190;2023-05-16T05:44:40;14.52;;;10.05;;
32214;SDS011;18708;53.124;23.190;2023-05-16T05:47:06;13.00;;;8.73;;
32214;SDS011;18708;53.124;23.190;2023-05-16T05:49:32;48.20;;;25.25;;
32214;SDS011;18708;53.124;23.190;2023-05-16T05:51:58;21.25;;;12.20;;
32214;SDS011;18708;53.124;23.190;2023-05-16T05:54:24;24.83;;;14.48;;
32214;SDS011;18708;53.124;23.190;2023-05-16T05:56:49;10.57;;;8.35;;
32214;SDS011;18708;53.124;23.190;2023-05-16T05:59:15;17.17;;;10.40;;
32214;SDS011;18708;53.124;23.190;2023-05-16T06:01:41;10.88;;;8.63;;
32214;SDS011;18708;53.124;23.190;2023-05-16T06:04:08;12.32;;;8.75;;
32214;SDS011;18708;53.124;23.190;2023-05-16T06:06:34;15.15;;;10.60;;
32214;SDS011;18708;53.124;23.190;2023-05-16T06:09:00;8.02;;;6.63;;
32214;SDS011;18708;53.124;23.190;2023-05-16T06:11:26;7.35;;;6.22;;
32214;SDS011;18708;53.124;23.190;2023-05-16T06:13:51;7.28;;;6.15;;
32214;SDS011;18708;53.124;23.190;2023-05-16T06:16:17;8.90;;;6.15;;
32214;SDS011;18708;53.124;23.190;2023-05-16T06:18:43;6.72;;;6.03;;
32214;SDS011;18708;53.124;23.190;2023-05-16T06:21:09;6.93;;;5.30;;
32214;SDS011;18708;53.124;23.190;2023-05-16T06:23:35;5.53;;;4.93;;
32214;SDS011;18708;53.124;23.190;2023-05-16T06:26:01;4.95;;;4.45;;
32214;SDS011;18708;53.124;23.190;2023-05-16T06:28:28;5.80;;;4.55;;
32214;SDS011;18708;53.124;23.190;2023-05-16T06:30:53;6.05;;;4.45;;
32214;SDS011;18708;53.124;23.190;2023-05-16T06:33:19;6.72;;;5.28;;
32214;SDS011;18708;53.124;23.190;2023-05-16T06:35:45;6.03;;;5.03;;
32214;SDS011;18708;53.124;23.190;2023-05-16T06:38:13;5.35;;;4.75;;
32214;SDS011;18708;53.124;23.190;2023-05-16T06:40:39;8.25;;;5.00;;
32214;SDS011;18708;53.124;23.190;2023-05-16T06:43:05;4.85;;;4.15;;
32214;SDS011;18708;53.124;23.190;2023-05-16T06:45:30;4.82;;;4.10;;
32214;SDS011;18708;53.124;23.190;2023-05-16T06:47:56;6.70;;;4.80;;
32214;SDS011;18708;53.124;23.190;2023-05-16T06:50:22;6.07;;;4.45;;
32214;SDS011;18708;53.124;23.190;2023-05-16T06:52:48;5.15;;;4.10;;
32214;SDS011;18708;53.124;23.190;2023-05-16T06:55:14;5.28;;;4.15;;
32214;SDS011;18708;53.124;23.190;2023-05-16T06:57:40;4.78;;;4.32;;
32214;SDS011;18708;53.124;23.190;2023-05-16T07:00:06;4.22;;;3.67;;
32214;SDS011;18708;53.124;23.190;2023-05-16T07:02:32;4.78;;;4.25;;
32214;SDS011;18708;53.124;23.190;2023-05-16T07:04:58;5.95;;;4.70;;
32214;SDS011;18708;53.124;23.190;2023-05-16T07:07:23;4.43;;;3.97;;
32214;SDS011;18708;53.124;23.190;2023-05-16T07:09:49;5.15;;;4.40;;
32214;SDS011;18708;53.124;23.190;2023-05-16T07:12:16;4.55;;;4.13;;
32214;SDS011;18708;53.124;23.190;2023-05-16T07:14:42;4.30;;;3.90;;
32214;SDS011;18708;53.124;23.190;2023-05-16T07:17:08;7.28;;;4.20;;
32214;SDS011;18708;53.124;23.190;2023-05-16T07:19:34;5.20;;;4.68;;
32214;SDS011;18708;53.124;23.190;2023-05-16T07:22:00;5.97;;;3.67;;
32214;SDS011;18708;53.124;23.190;2023-05-16T07:24:26;4.75;;;3.85;;
32214;SDS011;18708;53.124;23.190;2023-05-16T07:26:51;4.75;;;3.90;;
32214;SDS011;18708;53.124;23.190;2023-05-16T07:29:17;4.80;;;4.30;;
32214;SDS011;18708;53.124;23.190;2023-05-16T07:31:43;6.97;;;4.35;;
32214;SDS011;18708;53.124;23.190;2023-05-16T07:34:09;4.70;;;4.13;;
32214;SDS011;18708;53.124;23.190;2023-05-16T07:36:36;4.30;;;3.90;;
32214;SDS011;18708;53.124;23.190;2023-05-16T07:39:01;4.15;;;3.60;;
32214;SDS011;18708;53.124;23.190;2023-05-16T07:41:28;4.88;;;4.03;;
32214;SDS011;18708;53.124;23.190;2023-05-16T07:43:54;5.00;;;3.80;;
32214;SDS011;18708;53.124;23.190;2023-05-16T07:46:20;5.53;;;4.00;;
32214;SDS011;18708;53.124;23.190;2023-05-16T07:48:45;4.15;;;3.50;;
32214;SDS011;18708;53.124;23.190;2023-05-16T07:51:11;4.38;;;3.38;;
32214;SDS011;18708;53.124;23.190;2023-05-16T07:53:37;7.20;;;3.55;;
32214;SDS011;18708;53.124;23.190;2023-05-16T07:56:03;4.97;;;3.50;;
32214;SDS011;18708;53.124;23.190;2023-05-16T07:58:29;5.28;;;3.30;;
32214;SDS011;18708;53.124;23.190;2023-05-16T08:00:54;4.18;;;3.45;;
32214;SDS011;18708;53.124;23.190;2023-05-16T08:03:20;4.47;;;4.07;;
32214;SDS011;18708;53.124;23.190;2023-05-16T08:05:46;4.93;;;3.40;;
32214;SDS011;18708;53.124;23.190;2023-05-16T08:08:13;5.47;;;3.97;;
32214;SDS011;18708;53.124;23.190;2023-05-16T08:10:38;4.40;;;3.97;;
32214;SDS011;18708;53.124;23.190;2023-05-16T08:13:04;5.88;;;3.70;;
32214;SDS011;18708;53.124;23.190;2023-05-16T08:15:30;5.57;;;3.75;;
32214;SDS011;18708;53.124;23.190;2023-05-16T08:17:56;4.70;;;3.67;;
32214;SDS011;18708;53.124;23.190;2023-05-16T08:20:23;5.47;;;3.72;;
32214;SDS011;18708;53.124;23.190;2023-05-16T08:22:49;3.70;;;3.28;;
32214;SDS011;18708;53.124;23.190;2023-05-16T08:25:16;5.20;;;3.60;;
32214;SDS011;18708;53.124;23.190;2023-05-16T08:27:43;6.03;;;3.63;;
32214;SDS011;18708;53.124;23.190;2023-05-16T08:30:10;4.03;;;3.63;;
32214;SDS011;18708;53.124;23.190;2023-05-16T08:32:36;4.30;;;3.38;;
32214;SDS011;18708;53.124;23.190;2023-05-16T08:35:02;3.50;;;3.20;;
32214;SDS011;18708;53.124;23.190;2023-05-16T08:37:28;3.97;;;3.58;;
32214;SDS011;18708;53.124;23.190;2023-05-16T08:39:54;3.50;;;3.13;;
32214;SDS011;18708;53.124;23.190;2023-05-16T08:42:20;3.83;;;3.25;;
32214;SDS011;18708;53.124;23.190;2023-05-16T08:44:46;4.25;;;3.85;;
32214;SDS011;18708;53.124;23.190;2023-05-16T08:47:12;4.60;;;3.85;;
32214;SDS011;18708;53.124;23.190;2023-05-16T08:49:48;4.95;;;3.35;;
32214;SDS011;18708;53.124;23.190;2023-05-16T08:52:18;4.15;;;3.72;;
32214;SDS011;18708;53.124;23.190;2023-05-16T08:54:45;5.80;;;3.90;;
32214;SDS011;18708;53.124;23.190;2023-05-16T08:57:12;3.63;;;3.30;;
32214;SDS011;18708;53.124;23.190;2023-05-16T08:59:39;3.75;;;3.45;;
32214;SDS011;18708;53.124;23.190;2023-05-16T09:02:05;4.10;;;3.58;;
32214;SDS011;18708;53.124;23.190;2023-05-16T09:04:32;4.28;;;3.70;;
32214;SDS011;18708;53.124;23.190;2023-05-16T09:06:57;3.95;;;3.55;;
32214;SDS011;18708;53.124;23.190;2023-05-16T09:09:23;4.80;;;3.55;;
32214;SDS011;18708;53.124;23.190;2023-05-16T09:11:49;7.43;;;4.00;;
32214;SDS011;18708;53.124;23.190;2023-05-16T09:14:15;4.82;;;4.25;;
32214;SDS011;18708;53.124;23.190;2023-05-16T09:16:41;4.65;;;3.75;;
32214;SDS011;18708;53.124;23.190;2023-05-16T09:19:06;5.82;;;4.95;;
32214;SDS011;18708;53.124;23.190;2023-05-16T09:21:37;5.22;;;4.30;;
32214;SDS011;18708;53.124;23.190;2023-05-16T09:24:07;6.80;;;5.22;;
32214;SDS011;18708;53.124;23.190;2023-05-16T09:26:34;6.15;;;4.95;;
32214;SDS011;18708;53.124;23.190;2023-05-16T09:29:01;5.97;;;5.30;;
32214;SDS011;18708;53.124;23.190;2023-05-16T09:31:34;6.13;;;4.87;;
32214;SDS011;18708;53.124;23.190;2023-05-16T09:34:08;6.50;;;5.57;;
32214;SDS011;18708;53.124;23.190;2023-05-16T09:36:37;8.63;;;4.55;;
32214;SDS011;18708;53.124;23.190;2023-05-16T09:39:04;6.10;;;5.15;;
32214;SDS011;18708;53.124;23.190;2023-05-16T09:41:34;5.35;;;4.55;;
32214;SDS011;18708;53.124;23.190;2023-05-16T09:44:03;5.85;;;4.82;;
32214;SDS011;18708;53.124;23.190;2023-05-16T09:46:32;7.43;;;4.47;;
32214;SDS011;18708;53.124;23.190;2023-05-16T09:48:59;4.22;;;3.83;;
32214;SDS011;18708;53.124;23.190;2023-05-16T09:51:24;4.20;;;3.63;;
32214;SDS011;18708;53.124;23.190;2023-05-16T09:53:51;5.82;;;3.67;;
32214;SDS011;18708;53.124;23.190;2023-05-16T09:56:16;3.97;;;3.60;;
32214;SDS011;18708;53.124;23.190;2023-05-16T09:58:43;5.13;;;3.20;;
32214;SDS011;18708;53.124;23.190;2023-05-16T10:01:11;5.18;;;3.90;;
32214;SDS011;18708;53.124;23.190;2023-05-16T10:03:37;4.63;;;3.17;;
32214;SDS011;18708;53.124;23.190;2023-05-16T10:06:04;4.85;;;3.80;;
32214;SDS011;18708;53.124;23.190;2023-05-16T10:08:32;6.35;;;3.70;;
32214;SDS011;18708;53.124;23.190;2023-05-16T10:11:02;5.10;;;3.47;;
32214;SDS011;18708;53.124;23.190;2023-05-16T10:13:30;3.97;;;3.50;;
32214;SDS011;18708;53.124;23.190;2023-05-16T10:15:57;4.30;;;3.78;;
32214;SDS011;18708;53.124;23.190;2023-05-16T10:18:28;3.95;;;3.55;;
32214;SDS011;18708;53.124;23.190;2023-05-16T10:20:56;4.32;;;3.63;;
32214;SDS011;18708;53.124;23.190;2023-05-16T10:23:31;5.32;;;3.53;;
32214;SDS011;18708;53.124;23.190;2023-05-16T10:26:00;4.15;;;3.72;;
32214;SDS011;18708;53.124;23.190;2023-05-16T10:28:28;4.97;;;3.50;;
32214;SDS011;18708;53.124;23.190;2023-05-16T10:30:54;6.75;;;3.72;;
32214;SDS011;18708;53.124;23.190;2023-05-16T10:33:20;4.65;;;4.18;;
32214;SDS011;18708;53.124;23.190;2023-05-16T10:35:46;6.05;;;3.92;;
32214;SDS011;18708;53.124;23.190;2023-05-16T10:38:12;4.28;;;3.88;;
32214;SDS011;18708;53.124;23.190;2023-05-16T10:40:41;4.55;;;4.07;;
32214;SDS011;18708;53.124;23.190;2023-05-16T10:43:07;3.85;;;3.30;;
32214;SDS011;18708;53.124;23.190;2023-05-16T10:45:34;3.45;;;3.15;;
32214;SDS011;18708;53.124;23.190;2023-05-16T10:48:04;3.83;;;3.20;;
32214;SDS011;18708;53.124;23.190;2023-05-16T10:53:19;3.38;;;2.88;;
32214;SDS011;18708;53.124;23.190;2023-05-16T10:58:33;4.85;;;3.50;;
32214;SDS011;18708;53.124;23.190;2023-05-16T11:06:22;2.95;;;2.72;;
32214;SDS011;18708;53.124;23.190;2023-05-16T11:11:39;2.97;;;2.63;;
32214;SDS011;18708;53.124;23.190;2023-05-16T11:25:05;4.03;;;3.10;;
32214;SDS011;18708;53.124;23.190;2023-05-16T11:27:34;2.85;;;2.58;;
32214;SDS011;18708;53.124;23.190;2023-05-16T11:32:36;3.05;;;2.35;;
32214;SDS011;18708;53.124;23.190;2023-05-16T11:35:04;4.03;;;2.75;;
32214;SDS011;18708;53.124;23.190;2023-05-16T11:37:31;3.22;;;2.83;;
32214;SDS011;18708;53.124;23.190;2023-05-16T11:39:58;3.85;;;3.13;;
32214;SDS011;18708;53.124;23.190;2023-05-16T11:42:28;3.60;;;3.30;;
32214;SDS011;18708;53.124;23.190;2023-05-16T11:47:38;3.28;;;2.95;;
32214;SDS011;18708;53.124;23.190;2023-05-16T11:50:11;3.75;;;3.45;;
32214;SDS011;18708;53.124;23.190;2023-05-16T11:52:38;4.05;;;2.97;;
32214;SDS011;18708;53.124;23.190;2023-05-16T11:55:07;4.00;;;3.30;;
32214;SDS011;18708;53.124;23.190;2023-05-16T11:57:36;5.25;;;3.50;;
32214;SDS011;18708;53.124;23.190;2023-05-16T12:00:21;3.70;;;3.20;;
32214;SDS011;18708;53.124;23.190;2023-05-16T12:02:51;4.85;;;3.60;;
32214;SDS011;18708;53.124;23.190;2023-05-16T12:05:19;4.10;;;3.40;;
32214;SDS011;18708;53.124;23.190;2023-05-16T12:07:49;5.55;;;3.50;;
32214;SDS011;18708;53.124;23.190;2023-05-16T12:10:15;3.20;;;2.90;;
32214;SDS011;18708;53.124;23.190;2023-05-16T12:12:43;5.32;;;3.33;;
32214;SDS011;18708;53.124;23.190;2023-05-16T12:15:11;3.53;;;3.03;;
32214;SDS011;18708;53.124;23.190;2023-05-16T12:17:39;3.38;;;2.80;;
32214;SDS011;18708;53.124;23.190;2023-05-16T12:20:05;4.15;;;2.90;;
32214;SDS011;18708;53.124;23.190;2023-05-16T12:22:39;3.53;;;3.22;;
32214;SDS011;18708;53.124;23.190;2023-05-16T12:25:21;3.25;;;2.95;;
32214;SDS011;18708;53.124;23.190;2023-05-16T12:27:53;6.13;;;3.08;;
32214;SDS011;18708;53.124;23.190;2023-05-16T12:30:22;4.10;;;3.70;;
32214;SDS011;18708;53.124;23.190;2023-05-16T12:32:53;4.22;;;3.83;;
32214;SDS011;18708;53.124;23.190;2023-05-16T12:35:22;3.03;;;2.72;;
32214;SDS011;18708;53.124;23.190;2023-05-16T12:37:49;5.45;;;3.20;;
32214;SDS011;18708;53.124;23.190;2023-05-16T12:40:15;3.92;;;2.70;;
32214;SDS011;18708;53.124;23.190;2023-05-16T12:42:48;4.07;;;3.10;;
32214;SDS011;18708;53.124;23.190;2023-05-16T12:45:15;5.93;;;3.10;;
32214;SDS011;18708;53.124;23.190;2023-05-16T12:47:42;3.35;;;2.70;;
32214;SDS011;18708;53.124;23.190;2023-05-16T12:50:11;4.07;;;3.13;;
32214;SDS011;18708;53.124;23.190;2023-05-16T12:55:14;3.72;;;2.65;;
32214;SDS011;18708;53.124;23.190;2023-05-16T12:57:44;4.45;;;3.13;;
32214;SDS011;18708;53.124;23.190;2023-05-16T13:00:12;4.10;;;2.72;;
32214;SDS011;18708;53.124;23.190;2023-05-16T13:02:38;3.58;;;2.97;;
32214;SDS011;18708;53.124;23.190;2023-05-16T13:05:05;4.55;;;2.92;;
32214;SDS011;18708;53.124;23.190;2023-05-16T13:07:34;3.00;;;2.70;;
32214;SDS011;18708;53.124;23.190;2023-05-16T13:10:00;3.50;;;3.20;;
32214;SDS011;18708;53.124;23.190;2023-05-16T13:12:28;3.92;;;2.83;;
32214;SDS011;18708;53.124;23.190;2023-05-16T13:14:53;3.22;;;2.92;;
32214;SDS011;18708;53.124;23.190;2023-05-16T13:17:19;7.32;;;3.33;;
32214;SDS011;18708;53.124;23.190;2023-05-16T13:19:45;4.32;;;2.95;;
32214;SDS011;18708;53.124;23.190;2023-05-16T13:22:11;6.55;;;3.20;;
32214;SDS011;18708;53.124;23.190;2023-05-16T13:24:36;3.20;;;2.90;;
32214;SDS011;18708;53.124;23.190;2023-05-16T13:27:02;5.35;;;3.30;;
32214;SDS011;18708;53.124;23.190;2023-05-16T13:29:28;3.45;;;3.15;;
32214;SDS011;18708;53.124;23.190;2023-05-16T13:31:54;3.85;;;2.75;;
32214;SDS011;18708;53.124;23.190;2023-05-16T13:34:20;3.05;;;2.75;;
32214;SDS011;18708;53.124;23.190;2023-05-16T13:36:46;3.30;;;3.00;;
32214;SDS011;18708;53.124;23.190;2023-05-16T13:39:13;5.63;;;3.00;;
32214;SDS011;18708;53.124;23.190;2023-05-16T13:41:38;3.63;;;2.63;;
32214;SDS011;18708;53.124;23.190;2023-05-16T13:44:06;4.35;;;3.22;;
32214;SDS011;18708;53.124;23.190;2023-05-16T13:46:32;3.25;;;2.97;;
32214;SDS011;18708;53.124;23.190;2023-05-16T13:48:57;3.53;;;3.20;;
32214;SDS011;18708;53.124;23.190;2023-05-16T13:51:23;2.45;;;2.25;;
32214;SDS011;18708;53.124;23.190;2023-05-16T13:53:49;2.75;;;2.55;;
32214;SDS011;18708;53.124;23.190;2023-05-16T13:56:14;4.10;;;2.60;;
32214;SDS011;18708;53.124;23.190;2023-05-16T13:58:40;3.08;;;2.78;;
32214;SDS011;18708;53.124;23.190;2023-05-16T14:01:06;3.28;;;2.40;;
32214;SDS011;18708;53.124;23.190;2023-05-16T14:03:31;4.60;;;2.47;;
32214;SDS011;18708;53.124;23.190;2023-05-16T14:05:57;3.65;;;2.50;;
32214;SDS011;18708;53.124;23.190;2023-05-16T14:08:23;3.30;;;2.53;;
32214;SDS011;18708;53.124;23.190;2023-05-16T14:10:48;2.08;;;1.95;;
32214;SDS011;18708;53.124;23.190;2023-05-16T14:13:14;2.33;;;2.13;;
32214;SDS011;18708;53.124;23.190;2023-05-16T14:15:40;2.22;;;1.95;;
32214;SDS011;18708;53.124;23.190;2023-05-16T14:18:05;2.50;;;2.28;;
32214;SDS011;18708;53.124;23.190;2023-05-16T14:20:32;2.20;;;2.00;;
32214;SDS011;18708;53.124;23.190;2023-05-16T14:22:58;2.45;;;2.20;;
32214;SDS011;18708;53.124;23.190;2023-05-16T14:25:23;2.47;;;2.25;;
32214;SDS011;18708;53.124;23.190;2023-05-16T14:27:49;2.60;;;1.77;;
32214;SDS011;18708;53.124;23.190;2023-05-16T14:30:15;2.10;;;1.80;;
32214;SDS011;18708;53.124;23.190;2023-05-16T14:32:41;1.88;;;1.70;;
32214;SDS011;18708;53.124;23.190;2023-05-16T14:35:07;2.08;;;1.88;;
32214;SDS011;18708;53.124;23.190;2023-05-16T14:37:36;2.33;;;2.10;;
32214;SDS011;18708;53.124;23.190;2023-05-16T14:40:01;1.65;;;1.55;;
32214;SDS011;18708;53.124;23.190;2023-05-16T14:42:28;1.80;;;1.60;;
32214;SDS011;18708;53.124;23.190;2023-05-16T14:44:55;4.32;;;2.15;;
32214;SDS011;18708;53.124;23.190;2023-05-16T14:47:20;3.35;;;2.08;;
32214;SDS011;18708;53.124;23.190;2023-05-16T14:49:47;1.75;;;1.65;;
32214;SDS011;18708;53.124;23.190;2023-05-16T14:52:12;1.77;;;1.67;;
32214;SDS011;18708;53.124;23.190;2023-05-16T14:54:38;2.95;;;1.90;;
32214;SDS011;18708;53.124;23.190;2023-05-16T14:57:04;2.10;;;1.73;;
32214;SDS011;18708;53.124;23.190;2023-05-16T14:59:30;4.78;;;1.73;;
32214;SDS011;18708;53.124;23.190;2023-05-16T15:01:57;2.20;;;1.42;;
32214;SDS011;18708;53.124;23.190;2023-05-16T15:04:23;1.73;;;1.63;;
32214;SDS011;18708;53.124;23.190;2023-05-16T15:06:50;2.70;;;1.65;;
32214;SDS011;18708;53.124;23.190;2023-05-16T15:09:16;2.03;;;1.83;;